Time;durP1;ratioP1;P1;durP2;ratioP2;P2;SDS_P1;SDS_P2;PMS_P1;PMS_P2;Temp;Humidity;BMP_temperature;BMP_pressure;BME280_temperature;BME280_humidity;BME280_pressure;Samples;Min_cycle;Max_cycle;Signal;HPM_P1;HPM_P2
2023/05/13 00:00:13;;;;;;;7.32;5.78;;;12.20;99.90;;;;;;4992784;28;20371;-49
2023/05/13 00:02:38;;;;;;;9.18;5.68;;;12.10;99.90;;;;;;4992305;28;20032;-49
2023/05/13 00:05:04;;;;;;;7.28;6.03;;;12.10;99.90;;;;;;4992190;28;20030;-50
2023/05/13 00:07:30;;;;;;;6.90;6.10;;;12.10;99.90;;;;;;4992433;28;20386;-48
2023/05/13 00:09:55;;;;;;;7.32;6.63;;;12.10;99.90;;;;;;4992738;28;20022;-50
2023/05/13 00:12:21;;;;;;;12.02;6.25;;;12.10;99.90;;;;;;4992209;28;20026;-49
2023/05/13 00:14:47;;;;;;;6.80;6.10;;;12.10;99.90;;;;;;4992417;28;20048;-47
2023/05/13 00:17:12;;;;;;;8.85;5.10;;;12.00;99.90;;;;;;4992042;28;20030;-47
2023/05/13 00:19:38;;;;;;;11.63;6.05;;;12.00;99.90;;;;;;4992447;28;20061;-50
2023/05/13 00:22:04;;;;;;;9.18;5.82;;;12.00;99.90;;;;;;4992157;28;20045;-52
2023/05/13 00:24:30;;;;;;;15.32;5.50;;;12.00;99.90;;;;;;4991161;28;20054;-47
2023/05/13 00:26:56;;;;;;;8.15;5.60;;;12.10;99.90;;;;;;4991610;28;20097;-47
2023/05/13 00:29:21;;;;;;;6.20;5.60;;;12.10;99.90;;;;;;4991938;28;20037;-47
2023/05/13 00:31:47;;;;;;;6.50;5.82;;;12.10;99.90;;;;;;4991935;28;20026;-49
2023/05/13 00:34:12;;;;;;;6.93;5.90;;;12.20;99.90;;;;;;4992173;28;20113;-52
2023/05/13 00:36:38;;;;;;;9.25;6.15;;;12.20;99.90;;;;;;5023308;23;20054;-42
2023/05/13 00:39:03;;;;;;;11.63;6.25;;;12.30;99.90;;;;;;5011678;28;20028;-43
2023/05/13 00:41:29;;;;;;;8.02;6.40;;;12.20;99.90;;;;;;5011518;28;20168;-42
2023/05/13 00:43:58;;;;;;;12.43;6.03;;;12.20;99.90;;;;;;5011327;28;20022;-43
2023/05/13 00:46:24;;;;;;;7.28;6.20;;;12.00;99.90;;;;;;5011678;28;20433;-42
2023/05/13 00:48:50;;;;;;;12.15;6.43;;;11.90;99.90;;;;;;5011319;28;20021;-39
2023/05/13 00:51:17;;;;;;;9.52;6.13;;;11.90;99.90;;;;;;5011164;28;20030;-41
2023/05/13 00:53:42;;;;;;;7.40;5.15;;;11.90;99.90;;;;;;5011499;28;20088;-42
2023/05/13 00:56:08;;;;;;;5.63;4.93;;;11.90;99.90;;;;;;5010402;28;20022;-43
2023/05/13 00:58:34;;;;;;;7.57;5.25;;;12.00;99.90;;;;;;5011004;28;20066;-44
2023/05/13 01:01:18;;;;;;;8.60;5.65;;;11.90;99.90;;;;;;5011251;28;20386;-44
2023/05/13 01:04:01;;;;;;;7.82;6.20;;;11.90;99.90;;;;;;5011369;28;20551;-44
2023/05/13 01:06:36;;;;;;;7.75;5.40;;;11.90;99.90;;;;;;5011387;28;20482;-42
2023/05/13 01:09:15;;;;;;;14.38;5.43;;;12.00;99.90;;;;;;5010970;28;20014;-42
2023/05/13 01:11:43;;;;;;;17.77;6.18;;;12.00;99.90;;;;;;5011061;28;20023;-41
2023/05/13 01:14:18;;;;;;;5.68;5.07;;;12.00;99.90;;;;;;5011430;28;20175;-42
2023/05/13 01:17:13;;;;;;;9.23;6.60;;;12.10;99.90;;;;;;5012339;28;20022;-46
2023/05/13 01:19:53;;;;;;;6.57;5.00;;;12.00;99.90;;;;;;5014353;28;20501;-43
2023/05/13 01:22:19;;;;;;;9.80;5.90;;;12.10;99.90;;;;;;5014971;28;20030;-43
2023/05/13 01:24:44;;;;;;;6.15;5.10;;;12.10;99.90;;;;;;5014390;28;20018;-41
2023/05/13 01:27:10;;;;;;;5.93;5.32;;;12.10;99.90;;;;;;5014748;28;20022;-44
2023/05/13 01:29:36;;;;;;;7.32;5.55;;;12.10;99.90;;;;;;5015167;28;20053;-43
2023/05/13 01:32:03;;;;;;;7.75;6.22;;;12.10;99.90;;;;;;5014555;28;20489;-46
2023/05/13 01:34:30;;;;;;;6.90;5.65;;;12.10;99.90;;;;;;5014683;28;20105;-44
2023/05/13 01:36:56;;;;;;;13.02;6.57;;;12.10;99.90;;;;;;5014715;28;20432;-42
2023/05/13 01:39:23;;;;;;;6.22;5.57;;;12.10;99.90;;;;;;5014231;28;20057;-42
2023/05/13 01:41:49;;;;;;;6.40;5.80;;;12.10;99.90;;;;;;5014571;28;20176;-42
2023/05/13 01:44:15;;;;;;;7.55;5.40;;;12.10;99.90;;;;;;5014373;28;20108;-44
2023/05/13 01:46:42;;;;;;;8.63;5.30;;;12.00;99.90;;;;;;5014533;28;20110;-43
2023/05/13 01:49:09;;;;;;;10.52;5.68;;;12.00;99.90;;;;;;5014283;28;20519;-43
2023/05/13 01:51:35;;;;;;;11.20;6.20;;;12.00;99.90;;;;;;5014455;28;20026;-43
2023/05/13 01:54:01;;;;;;;9.00;5.38;;;12.00;99.90;;;;;;5014463;28;20026;-49
2023/05/13 01:56:26;;;;;;;6.50;5.20;;;12.10;99.90;;;;;;5014269;28;20044;-43
2023/05/13 01:58:52;;;;;;;5.82;5.22;;;12.00;99.90;;;;;;5014256;28;20022;-47
2023/05/13 02:01:17;;;;;;;5.70;5.20;;;12.10;99.90;;;;;;5014044;28;20029;-43
2023/05/13 02:03:43;;;;;;;7.15;5.60;;;12.00;99.90;;;;;;5014295;28;20022;-43
2023/05/13 02:06:09;;;;;;;6.10;5.50;;;12.10;99.90;;;;;;5012929;28;20026;-47
2023/05/13 02:08:35;;;;;;;5.68;5.18;;;12.10;99.90;;;;;;5013948;28;20030;-45
2023/05/13 02:11:00;;;;;;;7.07;5.35;;;12.10;99.90;;;;;;5013882;28;20018;-44
2023/05/13 02:13:26;;;;;;;6.15;5.55;;;12.10;99.90;;;;;;5014175;28;20022;-47
2023/05/13 02:15:53;;;;;;;7.50;5.68;;;12.10;99.90;;;;;;5014227;28;20026;-44
2023/05/13 02:18:19;;;;;;;6.63;5.82;;;12.10;99.90;;;;;;5013674;28;20022;-41
2023/05/13 02:20:45;;;;;;;6.10;5.50;;;12.10;99.90;;;;;;5013739;28;20029;-47
2023/05/13 02:23:11;;;;;;;11.23;5.78;;;12.20;99.90;;;;;;5013827;28;20113;-48
2023/05/13 02:25:36;;;;;;;5.82;5.32;;;12.20;99.90;;;;;;5012895;28;21748;-44
2023/05/13 02:28:02;;;;;;;5.53;5.03;;;12.20;99.90;;;;;;5013046;28;20028;-45
2023/05/13 02:30:27;;;;;;;7.88;5.13;;;12.20;99.90;;;;;;5013650;28;20437;-44
2023/05/13 02:32:54;;;;;;;6.97;5.30;;;12.20;99.90;;;;;;5013465;28;20022;-42
2023/05/13 02:35:21;;;;;;;9.65;5.43;;;12.20;99.90;;;;;;5014032;28;20466;-47
2023/05/13 02:37:47;;;;;;;6.05;5.45;;;12.20;99.90;;;;;;5013526;28;20056;-49
2023/05/13 02:40:13;;;;;;;8.00;5.75;;;12.10;99.90;;;;;;5013804;28;20033;-48
2023/05/13 02:42:38;;;;;;;8.32;6.25;;;12.10;99.90;;;;;;5013240;28;20030;-48
2023/05/13 02:45:04;;;;;;;6.32;5.68;;;12.10;99.90;;;;;;5013983;28;20100;-44
2023/05/13 02:47:30;;;;;;;12.15;6.05;;;12.10;99.90;;;;;;5013005;28;20100;-47
2023/05/13 02:49:55;;;;;;;9.80;6.20;;;12.10;99.90;;;;;;5013480;28;20117;-46
2023/05/13 02:52:21;;;;;;;9.10;5.97;;;12.00;99.90;;;;;;5012010;28;20492;-47
2023/05/13 02:54:47;;;;;;;8.45;6.72;;;12.00;99.90;;;;;;5013370;28;20032;-44
2023/05/13 02:57:13;;;;;;;7.30;6.60;;;12.00;99.90;;;;;;5013960;28;20041;-48
2023/05/13 02:59:38;;;;;;;7.88;6.32;;;11.90;99.90;;;;;;5013550;28;20025;-42
2023/05/13 03:02:04;;;;;;;7.47;6.72;;;11.80;99.90;;;;;;5012953;28;20084;-45
2023/05/13 03:04:30;;;;;;;10.95;6.30;;;11.70;99.90;;;;;;5013220;28;20477;-44
2023/05/13 03:06:55;;;;;;;12.93;6.88;;;11.70;99.90;;;;;;5013353;28;20021;-45
2023/05/13 03:09:21;;;;;;;10.55;6.38;;;11.60;99.90;;;;;;5012885;28;20474;-44
2023/05/13 03:11:47;;;;;;;6.63;6.03;;;11.60;99.90;;;;;;5012908;28;20033;-43
2023/05/13 03:14:12;;;;;;;6.95;6.28;;;11.60;99.90;;;;;;5012923;28;20060;-45
2023/05/13 03:16:38;;;;;;;7.07;6.18;;;11.60;99.90;;;;;;5012850;28;20449;-45
2023/05/13 03:19:03;;;;;;;7.43;5.47;;;11.60;99.90;;;;;;5012547;28;20033;-44
2023/05/13 03:21:29;;;;;;;7.35;6.40;;;11.60;99.90;;;;;;5012668;28;20045;-44
2023/05/13 03:23:54;;;;;;;8.40;6.10;;;11.60;99.90;;;;;;5012882;28;20033;-45
2023/05/13 03:26:20;;;;;;;6.22;5.63;;;11.60;99.90;;;;;;5012006;28;20037;-43
2023/05/13 03:28:46;;;;;;;10.95;6.43;;;11.60;99.90;;;;;;5012277;28;20093;-43
2023/05/13 03:31:12;;;;;;;22.00;8.75;;;11.60;99.90;;;;;;5012337;28;20032;-43
2023/05/13 03:33:37;;;;;;;6.65;6.05;;;11.60;99.90;;;;;;5012659;28;20064;-43
2023/05/13 03:36:04;;;;;;;7.25;5.88;;;11.60;99.90;;;;;;5012387;28;20077;-45
2023/05/13 03:38:30;;;;;;;6.35;5.75;;;11.60;99.90;;;;;;5012803;28;20034;-43
2023/05/13 03:40:55;;;;;;;5.97;5.47;;;11.50;99.90;;;;;;5011262;28;20076;-47
2023/05/13 03:43:21;;;;;;;7.93;6.00;;;11.50;99.90;;;;;;5012719;28;20037;-43
2023/05/13 03:45:47;;;;;;;6.35;5.75;;;11.60;99.90;;;;;;5012014;28;20433;-44
2023/05/13 03:48:14;;;;;;;8.43;6.25;;;11.50;99.90;;;;;;5012270;28;20018;-43
2023/05/13 03:50:39;;;;;;;6.57;5.93;;;11.60;99.90;;;;;;5012622;28;20113;-46
2023/05/13 03:53:06;;;;;;;7.05;5.63;;;11.50;99.90;;;;;;5012192;28;20097;-42
2023/05/13 03:55:31;;;;;;;10.50;6.45;;;11.40;99.90;;;;;;5012151;28;20391;-46
2023/05/13 03:57:57;;;;;;;7.35;6.15;;;11.40;99.90;;;;;;5011801;28;20045;-41
2023/05/13 04:00:22;;;;;;;6.82;6.05;;;11.40;99.90;;;;;;5012417;28;20061;-43
2023/05/13 04:02:48;;;;;;;13.18;5.78;;;11.40;99.90;;;;;;5011859;28;20501;-45
2023/05/13 04:05:14;;;;;;;9.40;5.68;;;11.40;99.90;;;;;;5011960;28;20109;-40
2023/05/13 04:07:40;;;;;;;13.15;6.93;;;11.40;99.90;;;;;;5011879;28;20026;-43
2023/05/13 04:10:06;;;;;;;7.88;6.68;;;11.40;99.90;;;;;;5012098;28;20100;-42
2023/05/13 04:12:32;;;;;;;8.32;5.22;;;11.50;99.90;;;;;;5011594;28;20445;-42
2023/05/13 04:14:58;;;;;;;7.35;5.70;;;11.50;99.90;;;;;;5011921;28;20205;-44
2023/05/13 04:17:23;;;;;;;13.73;5.90;;;11.50;99.90;;;;;;5011458;28;20030;-44
2023/05/13 04:19:52;;;;;;;6.85;5.75;;;11.60;99.90;;;;;;5011864;28;20044;-44
2023/05/13 04:22:18;;;;;;;7.65;6.13;;;11.50;99.90;;;;;;5011505;28;20029;-43
2023/05/13 04:24:44;;;;;;;5.57;5.07;;;11.60;99.90;;;;;;5010689;28;20549;-47
2023/05/13 04:27:09;;;;;;;8.68;5.63;;;11.70;99.90;;;;;;5011348;28;20113;-47
2023/05/13 04:29:35;;;;;;;8.05;5.40;;;11.70;99.90;;;;;;5011574;28;20100;-43
2023/05/13 04:32:00;;;;;;;8.70;5.20;;;11.70;99.90;;;;;;5011426;28;20026;-43
2023/05/13 04:34:26;;;;;;;8.48;4.80;;;11.70;99.90;;;;;;5011601;28;20455;-43
2023/05/13 04:36:51;;;;;;;8.88;5.13;;;11.70;99.90;;;;;;5011745;28;20141;-43
2023/05/13 04:39:16;;;;;;;5.40;4.90;;;11.80;99.90;;;;;;5011193;28;20109;-47
2023/05/13 04:41:42;;;;;;;6.65;5.25;;;11.80;99.90;;;;;;5011199;28;20038;-46
2023/05/13 04:44:07;;;;;;;12.50;5.57;;;11.90;99.90;;;;;;5011442;28;20037;-43
2023/05/13 04:46:33;;;;;;;10.02;5.68;;;11.90;99.90;;;;;;5011457;28;20049;-43
2023/05/13 04:48:58;;;;;;;6.20;5.60;;;12.00;99.90;;;;;;5011260;28;20513;-43
2023/05/13 04:51:24;;;;;;;5.72;5.22;;;12.10;99.90;;;;;;5011654;28;20026;-46
2023/05/13 04:53:49;;;;;;;6.88;5.07;;;12.50;99.90;;;;;;5014237;28;20030;-46
2023/05/13 04:56:15;;;;;;;6.55;5.32;;;12.60;99.90;;;;;;5015466;28;20030;-43
2023/05/13 04:58:41;;;;;;;6.60;5.18;;;12.70;99.90;;;;;;5015462;28;20034;-49
2023/05/13 05:01:07;;;;;;;7.78;5.47;;;12.90;99.90;;;;;;5015185;28;20029;-44
2023/05/13 05:03:33;;;;;;;5.65;4.75;;;13.00;99.90;;;;;;5015352;28;20032;-42
2023/05/13 05:05:58;;;;;;;4.43;4.13;;;13.40;99.90;;;;;;5015244;28;20033;-48
2023/05/13 05:08:24;;;;;;;4.70;4.18;;;14.00;99.90;;;;;;5014850;28;20022;-45
2023/05/13 05:10:49;;;;;;;5.88;4.30;;;14.50;99.90;;;;;;5015036;28;20021;-45
2023/05/13 05:13:15;;;;;;;5.47;3.70;;;14.90;99.90;;;;;;5015298;28;20030;-46
2023/05/13 05:15:40;;;;;;;5.97;3.97;;;15.30;99.90;;;;;;5015316;28;20080;-44
2023/05/13 05:18:06;;;;;;;6.05;3.80;;;15.60;99.90;;;;;;5014788;28;20026;-45
2023/05/13 05:20:32;;;;;;;7.28;3.65;;;15.90;99.90;;;;;;5015102;28;20037;-45
2023/05/13 05:22:58;;;;;;;7.13;3.08;;;16.00;99.90;;;;;;5014752;28;20485;-42
2023/05/13 05:25:24;;;;;;;5.88;3.67;;;16.50;99.90;;;;;;5013935;28;20030;-44
2023/05/13 05:27:49;;;;;;;3.83;3.20;;;16.90;99.90;;;;;;5014718;28;20034;-44
2023/05/13 05:30:15;;;;;;;4.03;3.53;;;17.00;99.90;;;;;;5015066;28;20025;-49
2023/05/13 05:32:41;;;;;;;3.40;3.10;;;17.20;99.90;;;;;;5014602;28;20057;-44
2023/05/13 05:35:07;;;;;;;3.30;3.10;;;17.10;99.90;;;;;;5014842;28;20037;-42
2023/05/13 05:37:32;;;;;;;4.05;3.17;;;16.90;99.90;;;;;;5014300;28;20060;-42
2023/05/13 05:39:58;;;;;;;6.68;3.30;;;16.90;99.90;;;;;;5015027;28;20018;-43
2023/05/13 05:42:23;;;;;;;6.10;3.10;;;17.20;99.90;;;;;;5014495;28;20033;-43
2023/05/13 05:44:49;;;;;;;5.47;3.47;;;17.50;99.90;;;;;;5014565;28;20037;-43
2023/05/13 05:47:14;;;;;;;3.83;3.10;;;17.10;99.90;;;;;;5014205;28;20029;-42
2023/05/13 05:49:40;;;;;;;3.53;3.22;;;17.00;99.90;;;;;;5014381;28;20026;-43
2023/05/13 05:52:06;;;;;;;5.15;3.20;;;16.30;99.90;;;;;;5014480;28;20382;-48
2023/05/13 05:54:31;;;;;;;11.07;3.65;;;15.90;99.90;;;;;;5014484;28;20461;-43
2023/05/13 05:56:57;;;;;;;4.45;3.70;;;15.70;99.90;;;;;;5014577;28;20034;-46
2023/05/13 05:59:22;;;;;;;4.82;4.10;;;15.40;99.90;;;;;;5014272;28;20052;-45
2023/05/13 06:01:48;;;;;;;4.18;3.78;;;15.30;99.90;;;;;;5014201;28;20034;-47
2023/05/13 06:04:13;;;;;;;3.53;3.22;;;15.20;99.90;;;;;;5013322;28;20026;-44
2023/05/13 06:06:39;;;;;;;6.13;3.47;;;15.40;99.90;;;;;;5014812;28;20088;-44
2023/05/13 06:09:05;;;;;;;4.28;2.95;;;15.30;99.90;;;;;;5014367;28;20033;-46
2023/05/13 06:11:30;;;;;;;3.58;3.28;;;15.60;99.90;;;;;;5014178;28;20053;-49
2023/05/13 06:13:56;;;;;;;4.68;3.15;;;15.90;99.90;;;;;;5014387;28;20030;-43
2023/05/13 06:16:22;;;;;;;3.63;3.33;;;16.10;99.90;;;;;;5014239;28;20026;-43
2023/05/13 06:18:48;;;;;;;3.90;3.33;;;16.50;99.90;;;;;;5013796;28;20533;-43
2023/05/13 06:21:13;;;;;;;3.50;3.20;;;16.80;99.90;;;;;;5013830;28;20030;-43
2023/05/13 06:23:39;;;;;;;7.95;2.70;;;17.10;99.90;;;;;;5014036;28;20037;-43
2023/05/13 06:26:05;;;;;;;4.88;2.63;;;17.20;99.90;;;;;;5012985;28;20022;-43
2023/05/13 06:28:30;;;;;;;4.43;3.10;;;17.10;99.90;;;;;;5013745;28;20080;-43
2023/05/13 06:30:56;;;;;;;4.70;3.17;;;17.10;99.90;;;;;;5013660;28;20371;-47
2023/05/13 06:33:21;;;;;;;4.30;2.97;;;17.60;99.90;;;;;;5014129;28;20022;-46
2023/05/13 06:38:18;;;;;;;3.22;2.40;;;17.70;99.90;;;;;;5010919;28;20470;-52
2023/05/13 06:40:44;;;;;;;3.10;2.70;;;17.80;99.90;;;;;;5013447;28;20026;-55
2023/05/13 06:43:13;;;;;;;5.75;2.47;;;17.70;99.90;;;;;;5013790;28;20026;-56
2023/05/13 06:45:38;;;;;;;3.25;2.95;;;17.90;99.90;;;;;;5013741;28;20034;-55
2023/05/13 06:48:04;;;;;;;5.75;2.53;;;18.10;99.90;;;;;;5013271;28;20366;-51
2023/05/13 06:50:30;;;;;;;4.88;2.40;;;18.10;99.90;;;;;;5014079;28;20038;-54
2023/05/13 06:52:56;;;;;;;5.93;3.03;;;18.20;99.90;;;;;;5011793;28;20026;-53
2023/05/13 06:55:22;;;;;;;4.13;2.83;;;18.20;99.90;;;;;;5013412;28;20446;-55
2023/05/13 06:57:47;;;;;;;4.22;2.35;;;18.40;99.90;;;;;;5013001;28;20026;-54
2023/05/13 07:00:14;;;;;;;3.80;2.30;;;19.20;99.90;;;;;;5013493;28;20105;-52
2023/05/13 07:02:40;;;;;;;2.78;2.58;;;20.40;99.90;;;;;;5013121;28;20042;-57
2023/05/13 07:05:06;;;;;;;5.47;2.28;;;21.30;99.80;;;;;;5012096;28;20057;-52
2023/05/13 07:07:32;;;;;;;1.92;1.77;;;22.00;98.40;;;;;;5012841;28;20021;-55
2023/05/13 07:09:57;;;;;;;2.33;2.20;;;22.80;97.40;;;;;;5013497;28;20041;-56
2023/05/13 07:12:23;;;;;;;2.05;1.95;;;23.10;95.70;;;;;;5011746;28;20014;-54
2023/05/13 07:14:48;;;;;;;5.38;1.95;;;23.00;95.50;;;;;;5012910;28;20030;-56
2023/05/13 07:17:14;;;;;;;2.83;1.63;;;23.00;95.60;;;;;;5011439;28;20022;-56
2023/05/13 07:19:40;;;;;;;2.22;2.03;;;22.00;95.10;;;;;;5012935;28;20421;-55
2023/05/13 07:22:05;;;;;;;2.85;1.98;;;21.30;96.20;;;;;;5012667;28;20033;-56
2023/05/13 07:24:31;;;;;;;4.28;2.15;;;20.60;96.70;;;;;;5012645;28;20446;-51
2023/05/13 07:26:56;;;;;;;6.57;2.28;;;20.30;97.20;;;;;;5010576;28;20033;-52
2023/05/13 07:29:22;;;;;;;3.72;2.25;;;19.90;98.00;;;;;;5009524;28;20026;-55
2023/05/13 07:31:47;;;;;;;2.80;2.00;;;19.50;98.40;;;;;;5012010;28;20109;-54
2023/05/13 07:34:13;;;;;;;2.03;1.92;;;19.50;98.60;;;;;;5013344;28;20026;-50
2023/05/13 07:36:38;;;;;;;4.20;2.13;;;19.70;98.30;;;;;;5011078;28;20030;-47
2023/05/13 07:39:04;;;;;;;20.23;2.30;;;19.70;97.50;;;;;;5011112;28;20462;-50
2023/05/13 07:41:30;;;;;;;2.22;2.00;;;19.40;97.00;;;;;;5012180;28;20113;-51
2023/05/13 07:43:55;;;;;;;2.70;1.90;;;19.00;98.20;;;;;;5007041;28;20035;-53
2023/05/13 07:46:21;;;;;;;3.00;1.85;;;18.60;99.40;;;;;;5011966;28;20022;-50
2023/05/13 07:48:47;;;;;;;2.03;1.83;;;18.60;98.00;;;;;;5012980;28;20427;-52
2023/05/13 07:51:12;;;;;;;2.25;2.03;;;18.80;98.40;;;;;;5011370;28;20102;-52
2023/05/13 07:53:38;;;;;;;1.80;1.70;;;19.20;98.60;;;;;;5010798;28;20065;-55
2023/05/13 07:56:04;;;;;;;2.78;1.70;;;20.10;96.70;;;;;;5011060;28;20022;-49
2023/05/13 07:58:29;;;;;;;7.50;2.75;;;20.20;95.90;;;;;;5012125;28;20532;-50
2023/05/13 08:00:55;;;;;;;2.17;1.92;;;19.90;95.90;;;;;;5010926;28;20474;-52
2023/05/13 08:03:20;;;;;;;2.85;2.05;;;19.70;97.00;;;;;;5012616;28;20105;-55
2023/05/13 08:05:46;;;;;;;2.13;1.90;;;19.90;96.60;;;;;;5012349;28;20049;-49
2023/05/13 08:08:12;;;;;;;4.60;2.30;;;20.00;97.00;;;;;;5012140;28;20018;-47
2023/05/13 08:10:37;;;;;;;4.05;1.70;;;20.20;96.70;;;;;;5012383;28;20022;-47
2023/05/13 08:13:03;;;;;;;1.75;1.60;;;20.50;96.00;;;;;;5011723;28;20022;-48
2023/05/13 08:15:28;;;;;;;3.88;1.70;;;21.20;95.50;;;;;;5012192;28;20063;-53
2023/05/13 08:17:54;;;;;;;1.80;1.70;;;21.60;93.70;;;;;;5011674;28;20030;-54
2023/05/13 08:20:21;;;;;;;5.95;1.75;;;22.10;93.80;;;;;;5012022;28;20022;-52
2023/05/13 08:22:47;;;;;;;2.40;1.42;;;22.60;93.40;;;;;;5011792;28;20088;-51
2023/05/13 08:25:14;;;;;;;3.10;2.40;;;23.50;92.80;;;;;;5011623;28;20092;-53
2023/05/13 08:27:39;;;;;;;2.22;1.98;;;23.40;92.00;;;;;;5010694;28;20101;-56
2023/05/13 08:30:05;;;;;;;2.47;1.90;;;23.00;92.30;;;;;;5011950;28;20105;-51
2023/05/13 08:32:31;;;;;;;2.58;1.60;;;23.00;92.90;;;;;;5011304;28;20100;-53
2023/05/13 08:34:56;;;;;;;1.70;1.60;;;22.20;93.20;;;;;;5011774;28;20522;-53
2023/05/13 08:37:22;;;;;;;1.88;1.77;;;21.80;93.00;;;;;;5011143;28;20041;-53
2023/05/13 08:39:47;;;;;;;4.20;1.63;;;21.60;94.00;;;;;;5011684;28;20544;-53
2023/05/13 08:42:17;;;;;;;7.07;2.20;;;21.70;94.00;;;;;;5011444;28;20084;-53
2023/05/13 08:44:43;;;;;;;3.38;1.88;;;21.50;93.50;;;;;;5011378;28;20396;-50
2023/05/13 08:47:19;;;;;;;2.30;2.08;;;21.20;93.90;;;;;;5011192;28;20030;-50
2023/05/13 08:49:45;;;;;;;1.85;1.75;;;21.20;94.40;;;;;;5011640;28;20053;-51
2023/05/13 08:52:10;;;;;;;3.85;2.03;;;20.80;94.80;;;;;;5010232;28;20018;-52
2023/05/13 08:54:37;;;;;;;5.10;2.00;;;21.00;94.80;;;;;;5011685;28;20030;-53
2023/05/13 08:57:03;;;;;;;4.47;2.05;;;20.80;94.70;;;;;;5010441;28;20034;-51
2023/05/13 08:59:29;;;;;;;2.80;2.53;;;20.70;94.60;;;;;;5011692;28;20026;-54
2023/05/13 09:01:55;;;;;;;7.50;1.90;;;20.80;95.10;;;;;;5009788;28;20026;-54
2023/05/13 09:04:20;;;;;;;2.60;1.88;;;21.10;95.40;;;;;;5011394;28;20053;-52
2023/05/13 09:06:47;;;;;;;2.70;2.50;;;21.20;94.00;;;;;;5011446;28;20056;-52
2023/05/13 09:09:12;;;;;;;8.00;2.28;;;20.80;94.20;;;;;;5010659;28;20025;-55
2023/05/13 09:11:39;;;;;;;1.90;1.80;;;20.90;94.60;;;;;;5008433;28;20038;-57
2023/05/13 09:14:06;;;;;;;4.60;2.45;;;20.90;94.00;;;;;;5010028;28;20026;-48
2023/05/13 09:16:32;;;;;;;3.45;2.50;;;20.80;94.30;;;;;;5011466;28;20036;-53
2023/05/13 09:18:59;;;;;;;1.95;1.75;;;20.40;94.00;;;;;;5011006;28;20022;-52
2023/05/13 09:21:34;;;;;;;2.08;1.95;;;20.10;94.40;;;;;;5011058;28;20030;-54
2023/05/13 09:24:17;;;;;;;5.47;2.38;;;20.00;95.00;;;;;;5008963;28;20076;-50
2023/05/13 09:26:43;;;;;;;4.40;2.08;;;20.20;95.50;;;;;;4990606;28;20038;-50
2023/05/13 09:29:21;;;;;;;2.47;2.28;;;20.30;95.20;;;;;;5002075;28;20037;-53
2023/05/13 09:31:55;;;;;;;2.55;2.35;;;20.50;94.80;;;;;;5011491;28;20029;-49
2023/05/13 09:34:25;;;;;;;7.72;1.95;;;20.40;95.20;;;;;;5011531;28;20028;-48
2023/05/13 09:37:05;;;;;;;2.70;2.05;;;20.40;94.80;;;;;;5011385;28;20118;-47
2023/05/13 09:39:33;;;;;;;2.55;2.35;;;20.50;95.00;;;;;;5013726;28;20064;-49
2023/05/13 09:42:00;;;;;;;4.65;2.60;;;20.60;95.10;;;;;;5014636;28;20090;-55
2023/05/13 09:44:26;;;;;;;4.65;2.05;;;20.30;95.20;;;;;;5014780;28;20021;-55
2023/05/13 09:46:53;;;;;;;2.55;2.17;;;20.30;94.60;;;;;;5014725;28;20018;-52
2023/05/13 09:49:27;;;;;;;3.53;2.30;;;20.20;95.20;;;;;;5014398;28;20026;-54
2023/05/13 09:51:53;;;;;;;6.07;2.40;;;20.10;94.70;;;;;;5014294;28;20033;-51
2023/05/13 09:54:18;;;;;;;3.75;2.40;;;19.90;95.50;;;;;;5013213;28;20315;-51
2023/05/13 09:56:44;;;;;;;4.20;2.50;;;20.10;95.40;;;;;;5014677;28;20033;-53
2023/05/13 09:59:09;;;;;;;5.75;2.65;;;20.10;95.10;;;;;;5014559;28;20474;-52
2023/05/13 10:01:35;;;;;;;3.20;2.67;;;20.10;95.00;;;;;;5028316;28;20029;-54
2023/05/13 10:04:01;;;;;;;48.63;27.48;;;20.30;94.90;;;;;;5034082;28;20396;-50
2023/05/13 10:06:29;;;;;;;29.05;18.90;;;20.50;94.90;;;;;;5034130;28;20036;-53
2023/05/13 10:08:58;;;;;;;4.70;3.08;;;20.50;94.90;;;;;;5033760;28;20049;-55
2023/05/13 10:11:25;;;;;;;2.63;2.40;;;20.20;94.60;;;;;;5033817;28;20052;-53
2023/05/13 10:13:57;;;;;;;2.90;2.08;;;20.00;94.90;;;;;;5033734;28;20026;-58
2023/05/13 10:16:24;;;;;;;2.25;2.03;;;20.30;95.50;;;;;;5034146;28;20509;-55
2023/05/13 10:18:51;;;;;;;4.38;1.95;;;20.30;94.30;;;;;;5014984;28;20030;-52
2023/05/13 10:21:18;;;;;;;3.97;2.97;;;20.10;95.10;;;;;;5014096;28;20032;-54
2023/05/13 10:23:45;;;;;;;7.85;2.72;;;20.20;95.20;;;;;;5014066;28;20072;-55
2023/05/13 10:26:11;;;;;;;5.13;2.20;;;20.10;94.90;;;;;;5013337;28;20064;-56
2023/05/13 10:28:37;;;;;;;2.45;2.25;;;20.40;95.00;;;;;;5013146;28;20029;-56
2023/05/13 10:31:03;;;;;;;2.28;2.17;;;20.50;95.30;;;;;;5012995;28;20033;-49
2023/05/13 10:33:29;;;;;;;2.47;2.25;;;20.60;94.50;;;;;;5013666;28;20026;-53
2023/05/13 10:36:32;;;;;;;2.83;2.47;;;20.70;94.60;;;;;;5012924;28;20509;-55
2023/05/13 10:39:05;;;;;;;7.72;3.47;;;20.60;93.60;;;;;;4993488;28;20027;-53
2023/05/13 10:41:49;;;;;;;4.93;2.45;;;20.40;93.30;;;;;;5011954;28;20045;-54
2023/05/13 10:44:18;;;;;;;3.13;2.90;;;20.50;93.50;;;;;;5013124;28;20104;-56
2023/05/13 10:46:47;;;;;;;6.68;2.50;;;20.30;93.80;;;;;;5012084;28;20076;-54
2023/05/13 10:49:15;;;;;;;7.93;3.95;;;20.30;94.10;;;;;;5012424;28;20080;-52
2023/05/13 10:51:48;;;;;;;6.82;3.42;;;20.40;94.70;;;;;;5014145;28;20022;-54
2023/05/13 10:54:19;;;;;;;3.83;2.88;;;20.70;94.90;;;;;;5014016;28;20026;-53
2023/05/13 10:56:46;;;;;;;4.93;2.25;;;20.60;94.40;;;;;;5012602;28;20547;-52
2023/05/13 10:59:11;;;;;;;3.40;2.60;;;20.50;94.40;;;;;;5012413;28;20121;-54
2023/05/13 11:01:42;;;;;;;4.97;2.97;;;20.40;95.10;;;;;;5012711;28;20125;-50
2023/05/13 11:04:12;;;;;;;3.92;2.97;;;20.30;94.60;;;;;;5002263;28;20026;-53
2023/05/13 11:06:40;;;;;;;4.28;2.22;;;20.10;94.90;;;;;;5013355;28;20053;-53
2023/05/13 11:09:07;;;;;;;3.30;2.50;;;20.00;95.20;;;;;;5012930;28;20085;-53
2023/05/13 11:11:34;;;;;;;2.55;2.35;;;19.90;95.00;;;;;;5002892;28;20040;-57
2023/05/13 11:14:22;;;;;;;3.58;2.90;;;19.90;95.60;;;;;;5011863;28;20026;-57
2023/05/13 11:16:59;;;;;;;4.70;2.63;;;19.80;95.10;;;;;;5012968;28;20427;-53
2023/05/13 11:19:34;;;;;;;2.90;2.70;;;19.70;95.30;;;;;;5011178;28;20057;-54
2023/05/13 11:22:13;;;;;;;4.40;2.67;;;19.60;95.50;;;;;;5002760;28;20084;-54
2023/05/13 11:24:39;;;;;;;2.72;2.53;;;19.50;96.00;;;;;;5012383;28;20563;-54
2023/05/13 11:27:19;;;;;;;3.40;2.63;;;19.40;96.10;;;;;;5006181;28;20080;-46
2023/05/13 11:29:52;;;;;;;4.47;3.10;;;19.30;97.20;;;;;;5012365;28;20101;-55
2023/05/13 11:32:50;;;;;;;4.18;2.20;;;19.30;96.60;;;;;;5011263;28;20037;-54
2023/05/13 11:35:34;;;;;;;10.10;5.93;;;19.40;96.50;;;;;;5012560;28;20029;-52
2023/05/13 11:38:01;;;;;;;33.70;17.55;;;19.40;96.60;;;;;;5010118;28;20033;-50
2023/05/13 11:40:35;;;;;;;6.22;3.90;;;19.30;96.90;;;;;;5012585;28;20026;-56
2023/05/13 11:43:03;;;;;;;3.00;2.67;;;19.30;96.70;;;;;;5011584;28;20032;-57
2023/05/13 11:45:29;;;;;;;2.55;2.38;;;19.40;96.70;;;;;;5011808;28;20030;-56
2023/05/13 11:47:56;;;;;;;5.85;3.25;;;19.40;97.20;;;;;;5011963;28;20118;-57
2023/05/13 11:50:25;;;;;;;3.20;2.63;;;19.30;97.10;;;;;;5012265;28;20104;-52
2023/05/13 11:52:56;;;;;;;5.72;2.70;;;19.30;97.30;;;;;;5011756;28;20022;-50
2023/05/13 11:55:39;;;;;;;4.40;2.25;;;19.40;97.40;;;;;;5010661;28;20056;-51
2023/05/13 11:58:05;;;;;;;2.78;2.58;;;19.40;97.30;;;;;;5011391;28;20104;-50
2023/05/13 12:00:33;;;;;;;5.55;2.72;;;19.60;97.80;;;;;;5012246;28;20037;-53
2023/05/13 12:03:01;;;;;;;4.72;2.15;;;19.80;96.90;;;;;;5011399;28;20053;-54
2023/05/13 12:05:27;;;;;;;3.55;2.45;;;20.00;95.70;;;;;;5012157;28;20034;-54
2023/05/13 12:07:57;;;;;;;4.95;2.47;;;20.00;95.10;;;;;;5011973;28;20551;-52
2023/05/13 12:10:23;;;;;;;2.40;2.25;;;20.10;95.20;;;;;;5012125;28;20600;-54
2023/05/13 12:12:49;;;;;;;5.20;2.28;;;20.20;95.30;;;;;;5011847;28;20033;-53
2023/05/13 12:15:16;;;;;;;2.63;2.42;;;20.40;95.30;;;;;;5012159;28;20026;-52
2023/05/13 12:17:42;;;;;;;6.15;3.35;;;20.60;94.90;;;;;;5011751;28;20084;-53
2023/05/13 12:20:15;;;;;;;3.05;2.55;;;20.80;94.90;;;;;;5012160;28;20030;-49
2023/05/13 12:22:41;;;;;;;3.15;2.20;;;20.80;94.30;;;;;;5011771;28;20022;-53
2023/05/13 12:25:34;;;;;;;9.55;4.22;;;20.80;94.20;;;;;;5010650;28;20103;-52
2023/05/13 12:28:19;;;;;;;2.35;2.25;;;20.90;94.10;;;;;;5011793;28;20022;-52
2023/05/13 12:30:55;;;;;;;3.35;2.50;;;20.90;93.90;;;;;;5011943;28;20030;-55
2023/05/13 12:33:25;;;;;;;4.50;2.40;;;20.90;94.10;;;;;;5010864;28;20030;-55
2023/05/13 12:35:53;;;;;;;3.00;2.25;;;20.90;95.40;;;;;;5011914;28;20056;-52
2023/05/13 12:38:22;;;;;;;3.75;3.38;;;21.00;95.00;;;;;;5021524;22;20049;-48
2023/05/13 12:40:49;;;;;;;2.55;2.10;;;21.10;95.20;;;;;;5011571;28;20100;-43
2023/05/13 12:43:16;;;;;;;2.05;1.95;;;21.00;94.70;;;;;;5012663;28;20026;-39
2023/05/13 12:45:44;;;;;;;6.07;2.20;;;20.80;93.80;;;;;;5011784;28;20080;-44
2023/05/13 12:48:10;;;;;;;4.50;2.28;;;20.20;93.10;;;;;;5011399;28;20485;-46